createdAt,value
2023-01-25T00:02:02.064Z,99852.09
2023-01-25T00:04:28.996Z,99855.81
2023-01-25T00:06:55.874Z,99851.22
2023-01-25T00:09:23.306Z,99850.34
2023-01-25T00:11:50.029Z,99848.44
2023-01-25T00:14:17.321Z,99839.91
2023-01-25T00:16:44.350Z,99845.56
2023-01-25T00:19:11.778Z,99839.13
2023-01-25T00:21:38.810Z,99838.59
2023-01-25T00:24:06.029Z,99836.88
2023-01-25T00:26:34.865Z,99840.19
2023-01-25T00:29:02.179Z,99841.25
2023-01-25T00:31:34.751Z,99834.41
2023-01-25T00:34:24.508Z,99823.75
2023-01-25T00:37:06.939Z,99825.63
2023-01-25T00:39:33.665Z,99828.28
2023-01-25T00:42:00.314Z,99831.16
2023-01-25T00:44:26.992Z,99837.25
2023-01-25T00:46:53.621Z,99833.72
2023-01-25T00:49:22.091Z,99835.53
2023-01-25T00:51:49.618Z,99826.22
2023-01-25T00:54:16.573Z,99825.53
2023-01-25T00:56:43.226Z,99829.13
2023-01-25T00:59:15.519Z,99828.28
2023-01-25T01:01:42.678Z,99822.09
2023-01-25T01:04:09.527Z,99828.00
2023-01-25T01:06:37.942Z,99828.00
2023-01-25T01:09:06.579Z,99817.81
2023-01-25T01:11:33.210Z,99810.31
2023-01-25T01:14:00.434Z,99810.13
2023-01-25T01:16:27.412Z,99813.53
2023-01-25T01:18:54.489Z,99822.69
2023-01-25T01:21:21.898Z,99811.25
2023-01-25T01:23:48.841Z,99813.84
2023-01-25T01:26:19.522Z,99816.09
2023-01-25T01:28:46.485Z,99809.13
2023-01-25T01:31:19.056Z,99817.88
2023-01-25T01:33:49.923Z,99819.28
2023-01-25T01:36:18.223Z,99820.59
2023-01-25T01:38:46.102Z,99814.22
2023-01-25T01:41:13.531Z,99813.28
2023-01-25T01:43:40.437Z,99816.19
2023-01-25T01:46:35.912Z,99822.88
2023-01-25T01:49:19.605Z,99815.81
2023-01-25T01:52:02.764Z,99818.25
2023-01-25T01:54:36.335Z,99810.47
2023-01-25T01:57:10.953Z,99807.63
2023-01-25T02:00:03.860Z,99810.97
2023-01-25T02:02:30.412Z,99818.69
2023-01-25T02:05:01.210Z,99817.81
2023-01-25T02:07:35.006Z,99820.88
2023-01-25T02:10:04.753Z,99812.84
2023-01-25T02:12:32.059Z,99812.72
2023-01-25T02:14:58.752Z,99810.16
2023-01-25T02:17:34.965Z,99815.22
2023-01-25T02:20:31.732Z,99815.31
2023-01-25T02:23:07.341Z,99814.91
2023-01-25T02:25:33.942Z,99803.31
2023-01-25T02:28:16.719Z,99817.38
2023-01-25T02:30:43.921Z,99813.34
2023-01-25T02:33:11.093Z,99811.09
2023-01-25T02:35:40.423Z,99811.19
2023-01-25T02:38:08.484Z,99802.72
2023-01-25T02:40:44.434Z,99801.78
2023-01-25T02:43:11.070Z,99804.19
2023-01-25T02:45:37.701Z,99809.31
2023-01-25T02:48:04.819Z,99801.16
2023-01-25T02:50:31.516Z,99804.00
2023-01-25T02:52:58.091Z,99796.28
2023-01-25T02:55:24.782Z,99808.84
2023-01-25T02:57:51.383Z,99813.22
2023-01-25T03:00:18.451Z,99794.88
2023-01-25T03:02:45.079Z,99811.06
2023-01-25T03:05:11.671Z,99808.41
2023-01-25T03:07:38.325Z,99809.06
2023-01-25T03:10:05.346Z,99812.50
2023-01-25T03:12:31.996Z,99802.28
2023-01-25T03:14:58.551Z,99808.13
2023-01-25T03:17:25.216Z,99808.13
2023-01-25T03:19:53.987Z,99806.81
2023-01-25T03:22:20.726Z,99798.75
2023-01-25T03:24:47.465Z,99804.34
2023-01-25T03:27:14.541Z,99807.19
2023-01-25T03:29:41.864Z,99803.75
2023-01-25T03:32:08.988Z,99798.34
2023-01-25T03:34:35.738Z,99801.34
2023-01-25T03:37:02.887Z,99801.72
2023-01-25T03:39:29.539Z,99805.41
2023-01-25T03:41:56.162Z,99807.91
2023-01-25T03:44:22.778Z,99802.69
2023-01-25T03:46:49.422Z,99809.03
2023-01-25T03:49:16.036Z,99808.81
2023-01-25T03:51:42.630Z,99801.19
2023-01-25T03:54:10.239Z,99796.47
2023-01-25T03:56:37.993Z,99804.19
2023-01-25T03:59:04.624Z,99796.94
2023-01-25T04:01:31.243Z,99807.50
2023-01-25T04:03:57.875Z,99802.88
2023-01-25T04:06:24.489Z,99803.13
2023-01-25T04:08:51.020Z,99805.13
2023-01-25T04:11:17.663Z,99805.19
2023-01-25T04:13:44.240Z,99802.53
2023-01-25T04:16:14.032Z,99805.38
2023-01-25T04:18:40.910Z,99802.13
2023-01-25T04:21:07.876Z,99809.94
2023-01-25T04:23:34.523Z,99803.50
2023-01-25T04:26:05.364Z,99805.75
2023-01-25T04:28:33.248Z,99804.63
2023-01-25T04:31:00.265Z,99816.53
2023-01-25T04:33:27.626Z,99825.31
2023-01-25T04:35:54.174Z,99825.81
2023-01-25T04:38:21.420Z,99824.09
2023-01-25T04:40:48.035Z,99827.53
2023-01-25T04:43:16.404Z,99822.41
2023-01-25T04:45:43.215Z,99825.06
2023-01-25T04:48:12.013Z,99828.66
2023-01-25T04:50:40.235Z,99820.44
2023-01-25T04:53:08.403Z,99818.56
2023-01-25T04:55:35.614Z,99823.69
2023-01-25T04:58:03.704Z,99818.03
2023-01-25T05:00:31.229Z,99808.00
2023-01-25T05:02:58.167Z,99815.38
2023-01-25T05:05:24.772Z,99817.25
2023-01-25T05:07:51.338Z,99817.84
2023-01-25T05:10:17.975Z,99815.00
2023-01-25T05:12:44.649Z,99821.97
2023-01-25T05:15:11.970Z,99821.56
2023-01-25T05:17:38.823Z,99805.41
2023-01-25T05:20:05.659Z,99808.06
2023-01-25T05:22:32.549Z,99815.13
2023-01-25T05:24:59.336Z,99822.06
2023-01-25T05:27:26.116Z,99826.94
2023-01-25T05:29:52.662Z,99826.34
2023-01-25T05:32:22.326Z,99827.47
2023-01-25T05:34:49.379Z,99828.31
2023-01-25T05:37:20.458Z,99835.44
2023-01-25T05:39:47.456Z,99831.50
2023-01-25T05:42:16.842Z,99831.31
2023-01-25T05:44:46.289Z,99836.47
2023-01-25T05:47:16.114Z,99833.34
2023-01-25T05:49:43.031Z,99829.09
2023-01-25T05:52:15.004Z,99820.16
2023-01-25T05:54:41.792Z,99841.53
2023-01-25T05:57:08.396Z,99843.94
2023-01-25T05:59:34.970Z,99836.38
2023-01-25T06:02:01.616Z,99836.88
2023-01-25T06:04:28.304Z,99838.84
2023-01-25T06:06:54.887Z,99832.50
2023-01-25T06:09:22.398Z,99837.28
2023-01-25T06:11:49.631Z,99840.56
2023-01-25T06:14:16.352Z,99842.38
2023-01-25T06:16:42.940Z,99837.72
2023-01-25T06:19:09.619Z,99841.00
2023-01-25T06:21:37.144Z,99846.03
2023-01-25T06:24:07.182Z,99862.53
2023-01-25T06:26:34.406Z,99855.66
2023-01-25T06:29:00.958Z,99848.09
2023-01-25T06:31:27.719Z,99856.16
2023-01-25T06:33:54.538Z,99862.69
2023-01-25T06:36:22.675Z,99850.69
2023-01-25T06:38:50.902Z,99854.31
2023-01-25T06:41:18.437Z,99856.84
2023-01-25T06:43:45.499Z,99862.00
2023-01-25T06:46:12.777Z,99857.19
2023-01-25T06:48:40.021Z,99848.97
2023-01-25T06:51:09.333Z,99855.47
2023-01-25T06:53:38.562Z,99841.25
2023-01-25T06:56:09.459Z,99850.41
2023-01-25T06:58:37.820Z,99850.63
2023-01-25T07:01:16.725Z,99852.69
2023-01-25T07:03:43.414Z,99852.06
2023-01-25T07:06:11.429Z,99850.69
2023-01-25T07:08:38.345Z,99846.97
2023-01-25T07:11:07.269Z,99849.56
2023-01-25T07:13:34.595Z,99849.38
2023-01-25T07:16:07.059Z,99854.16
2023-01-25T07:18:37.528Z,99844.72
2023-01-25T07:21:10.819Z,99847.09
2023-01-25T07:23:38.495Z,99846.16
2023-01-25T07:26:06.405Z,99847.44
2023-01-25T07:28:33.707Z,99846.56
2023-01-25T07:31:07.473Z,99852.47
2023-01-25T07:33:34.733Z,99849.97
2023-01-25T07:36:11.147Z,99860.75
2023-01-25T07:38:37.796Z,99860.59
2023-01-25T07:41:04.653Z,99855.75
2023-01-25T07:43:31.646Z,99861.13
2023-01-25T07:46:02.919Z,99855.94
2023-01-25T07:48:30.199Z,99861.06
2023-01-25T07:51:22.674Z,99859.34
2023-01-25T07:53:51.209Z,99862.00
2023-01-25T07:56:19.403Z,99861.81
2023-01-25T07:58:46.971Z,99845.84
2023-01-25T08:01:15.750Z,99863.91
2023-01-25T08:03:43.846Z,99862.13
2023-01-25T08:06:11.269Z,99861.19
2023-01-25T08:08:41.263Z,99869.34
2023-01-25T08:11:18.185Z,99862.41
2023-01-25T08:13:46.329Z,99867.06
2023-01-25T08:16:21.875Z,99874.78
2023-01-25T08:18:50.024Z,99876.41
2023-01-25T08:21:17.350Z,99876.88
2023-01-25T08:23:44.192Z,99880.31
2023-01-25T08:26:13.314Z,99885.81
2023-01-25T08:28:40.428Z,99878.38
2023-01-25T08:31:13.862Z,99882.38
2023-01-25T08:33:40.788Z,99880.13
2023-01-25T08:36:09.528Z,99868.50
2023-01-25T08:38:36.540Z,99872.69
2023-01-25T08:41:06.692Z,99878.97
2023-01-25T08:43:33.969Z,99876.88
2023-01-25T08:46:00.571Z,99879.72
2023-01-25T08:48:27.385Z,99874.69
2023-01-25T08:50:54.025Z,99867.34
2023-01-25T08:53:20.902Z,99873.25
2023-01-25T08:55:47.630Z,99874.84
2023-01-25T08:58:16.938Z,99875.81
2023-01-25T09:00:45.059Z,99881.63
2023-01-25T09:03:12.190Z,99874.56
2023-01-25T09:05:39.740Z,99870.78
2023-01-25T09:08:08.602Z,99873.81
2023-01-25T09:10:35.426Z,99854.13
2023-01-25T09:13:02.275Z,99858.38
2023-01-25T09:15:29.095Z,99857.66
2023-01-25T09:17:59.633Z,99849.94
2023-01-25T09:20:26.245Z,99858.03
2023-01-25T09:22:52.791Z,99852.13
2023-01-25T09:25:19.392Z,99845.84
2023-01-25T09:27:49.985Z,99834.69
2023-01-25T09:30:26.147Z,99838.28
2023-01-25T09:32:57.381Z,99828.09
2023-01-25T09:35:24.042Z,99818.78
2023-01-25T09:37:52.208Z,99818.13
2023-01-25T09:40:23.890Z,99823.22
2023-01-25T09:43:05.274Z,99830.75
2023-01-25T09:45:36.792Z,99818.00
2023-01-25T09:48:09.906Z,99809.38
2023-01-25T09:50:59.994Z,99790.66
2023-01-25T09:53:33.561Z,99796.97
2023-01-25T09:56:30.083Z,99789.50
2023-01-25T09:59:04.363Z,99781.00
2023-01-25T10:01:49.482Z,99784.41
2023-01-25T10:04:28.690Z,99787.38
2023-01-25T10:07:22.539Z,99773.53
2023-01-25T10:10:03.008Z,99766.09
2023-01-25T10:12:37.088Z,99774.44
2023-01-25T10:15:19.004Z,99762.31
2023-01-25T10:17:48.786Z,99768.84
2023-01-25T10:20:33.012Z,99774.16
2023-01-25T10:23:17.899Z,99767.59
2023-01-25T10:25:51.736Z,99753.69
2023-01-25T10:28:30.228Z,99760.75
2023-01-25T10:31:06.347Z,99750.63
2023-01-25T10:33:38.700Z,99755.41
2023-01-25T10:36:06.970Z,99726.56
2023-01-25T10:38:49.597Z,99744.09
2023-01-25T10:41:21.770Z,99736.47
2023-01-25T10:43:48.432Z,99728.94
2023-01-25T10:46:26.374Z,99727.09
2023-01-25T10:48:53.116Z,99718.03
2023-01-25T10:51:35.345Z,99711.97
2023-01-25T10:54:04.348Z,99714.44
2023-01-25T10:56:34.321Z,99721.25
2023-01-25T10:59:27.625Z,99714.66
2023-01-25T11:01:54.366Z,99711.03
2023-01-25T11:04:31.536Z,99701.75
2023-01-25T11:06:59.572Z,99699.25
2023-01-25T11:09:28.960Z,99699.47
2023-01-25T11:12:01.121Z,99690.72
2023-01-25T11:14:30.754Z,99695.00
2023-01-25T11:16:58.836Z,99682.53
2023-01-25T11:19:40.829Z,99703.97
2023-01-25T11:22:19.253Z,99692.22
2023-01-25T11:24:46.488Z,99684.88
2023-01-25T11:27:22.435Z,99675.38
2023-01-25T11:30:13.078Z,99687.63
2023-01-25T11:32:40.566Z,99683.56
2023-01-25T11:35:14.563Z,99675.91
2023-01-25T11:38:14.928Z,99683.78
2023-01-25T11:40:49.510Z,99678.56
2023-01-25T11:43:34.805Z,99672.06
2023-01-25T11:46:13.424Z,99669.50
2023-01-25T11:49:04.707Z,99661.81
2023-01-25T11:51:51.202Z,99665.34
2023-01-25T11:54:41.735Z,99659.03
2023-01-25T11:57:30.543Z,99658.59
2023-01-25T12:00:10.091Z,99658.50
2023-01-25T12:02:55.300Z,99654.44
2023-01-25T12:05:38.567Z,99646.88
2023-01-25T12:08:44.969Z,99641.63
2023-01-25T12:11:45.348Z,99628.19
2023-01-25T12:14:19.077Z,99633.00
2023-01-25T12:17:14.565Z,99630.00
2023-01-25T12:20:00.447Z,99633.41
2023-01-25T12:22:48.706Z,99623.19
2023-01-25T12:25:48.737Z,99633.63
2023-01-25T12:28:19.763Z,99631.50
2023-01-25T12:30:59.362Z,99614.53
2023-01-25T12:33:54.879Z,99607.78
2023-01-25T12:36:40.228Z,99621.16
2023-01-25T12:39:13.684Z,99615.28
2023-01-25T12:42:00.315Z,99618.88
2023-01-25T12:44:41.261Z,99616.88
2023-01-25T12:47:26.306Z,99618.38
2023-01-25T12:49:52.810Z,99603.56
2023-01-25T12:52:28.347Z,99606.00
2023-01-25T12:54:59.819Z,99610.47
2023-01-25T12:57:41.909Z,99610.94
2023-01-25T13:00:26.897Z,99590.22
2023-01-25T13:03:06.860Z,99599.94
2023-01-25T13:05:54.195Z,99592.34
2023-01-25T13:08:32.146Z,99592.03
2023-01-25T13:11:12.223Z,99576.75
2023-01-25T13:13:39.015Z,99575.06
2023-01-25T13:16:30.203Z,99585.09
2023-01-25T13:18:58.364Z,99582.84
2023-01-25T13:21:36.848Z,99580.19
2023-01-25T13:24:22.030Z,99581.81
2023-01-25T13:26:54.351Z,99581.56
2023-01-25T13:29:36.100Z,99572.50
2023-01-25T13:32:22.440Z,99572.06
2023-01-25T13:34:54.956Z,99579.84
2023-01-25T13:37:24.737Z,99572.38
2023-01-25T13:39:53.960Z,99572.50
2023-01-25T13:42:39.540Z,99574.44
2023-01-25T13:45:18.781Z,99575.72
2023-01-25T13:48:01.134Z,99574.84
2023-01-25T13:50:31.009Z,99576.00
2023-01-25T13:52:59.877Z,99578.88
2023-01-25T13:55:27.549Z,99582.59
2023-01-25T13:58:09.180Z,99563.34
2023-01-25T14:00:35.846Z,99563.13
2023-01-25T14:03:06.624Z,99573.78
2023-01-25T14:05:33.504Z,99572.38
2023-01-25T14:08:00.175Z,99563.22
2023-01-25T14:10:28.200Z,99559.91
2023-01-25T14:13:00.266Z,99563.31
2023-01-25T14:15:28.709Z,99567.38
2023-01-25T14:18:10.496Z,99571.44
2023-01-25T14:20:37.153Z,99579.44
2023-01-25T14:23:05.562Z,99577.19
2023-01-25T14:25:33.689Z,99578.88
2023-01-25T14:28:01.494Z,99571.00
2023-01-25T14:30:31.688Z,99564.81
2023-01-25T14:33:01.263Z,99571.19
2023-01-25T14:35:49.298Z,99566.06
2023-01-25T14:38:22.856Z,99572.69
2023-01-25T14:40:51.405Z,99569.03
2023-01-25T14:43:18.621Z,99566.78
2023-01-25T14:45:45.347Z,99575.19
2023-01-25T14:48:38.396Z,99576.69
2023-01-25T14:51:26.736Z,99575.19
2023-01-25T14:54:03.464Z,99580.69
2023-01-25T14:56:32.541Z,99580.50
2023-01-25T14:59:00.322Z,99579.44
2023-01-25T15:01:35.091Z,99584.69
2023-01-25T15:04:02.563Z,99579.34
2023-01-25T15:06:29.453Z,99583.91
2023-01-25T15:08:56.066Z,99584.00
2023-01-25T15:11:35.247Z,99589.84
2023-01-25T15:14:19.319Z,99584.72
2023-01-25T15:16:46.476Z,99583.63
2023-01-25T15:19:28.683Z,99583.81
2023-01-25T15:21:57.640Z,99579.94
2023-01-25T15:24:25.153Z,99578.75
2023-01-25T15:26:53.959Z,99577.31
2023-01-25T15:29:28.396Z,99582.72
2023-01-25T15:31:56.169Z,99581.34
2023-01-25T15:34:34.923Z,99574.75
2023-01-25T15:37:01.531Z,99572.59
2023-01-25T15:39:28.879Z,99571.84
2023-01-25T15:41:55.578Z,99567.03
2023-01-25T15:44:22.210Z,99571.00
2023-01-25T15:46:51.126Z,99585.16
2023-01-25T15:49:25.278Z,99578.31
2023-01-25T15:51:51.830Z,99586.00
2023-01-25T15:54:18.409Z,99581.63
2023-01-25T15:56:51.113Z,99571.84
2023-01-25T15:59:18.840Z,99570.69
2023-01-25T16:01:45.524Z,99578.56
2023-01-25T16:04:15.793Z,99566.63
2023-01-25T16:06:46.138Z,99568.97
2023-01-25T16:09:20.694Z,99570.19
2023-01-25T16:11:51.062Z,99586.16
2023-01-25T16:14:18.061Z,99577.91
2023-01-25T16:16:47.704Z,99575.38
2023-01-25T16:19:16.347Z,99575.16
2023-01-25T16:21:43.405Z,99574.22
2023-01-25T16:24:11.240Z,99570.03
2023-01-25T16:26:40.661Z,99564.25
2023-01-25T16:29:07.406Z,99565.97
2023-01-25T16:31:34.294Z,99559.19
2023-01-25T16:34:01.534Z,99561.09
2023-01-25T16:36:28.991Z,99565.00
2023-01-25T16:38:55.563Z,99558.28
2023-01-25T16:41:22.505Z,99558.47
2023-01-25T16:43:49.770Z,99565.50
2023-01-25T16:46:19.059Z,99560.84
2023-01-25T16:48:47.647Z,99568.16
2023-01-25T16:51:26.203Z,99562.72
2023-01-25T16:53:55.607Z,99562.84
2023-01-25T16:56:28.299Z,99570.63
2023-01-25T16:58:56.724Z,99568.06
2023-01-25T17:01:24.786Z,99571.00
2023-01-25T17:03:52.013Z,99571.00
2023-01-25T17:06:30.803Z,99567.97
2023-01-25T17:09:02.176Z,99556.97
2023-01-25T17:11:31.971Z,99544.03
2023-01-25T17:14:00.190Z,99554.59
2023-01-25T17:16:30.538Z,99554.66
2023-01-25T17:19:08.280Z,99545.00
2023-01-25T17:21:34.861Z,99555.09
2023-01-25T17:24:03.266Z,99539.50
2023-01-25T17:26:31.963Z,99547.97
2023-01-25T17:29:01.791Z,99535.78
2023-01-25T17:31:34.007Z,99526.47
2023-01-25T17:34:03.614Z,99518.22
2023-01-25T17:36:30.609Z,99515.75
2023-01-25T17:39:01.710Z,99510.31
2023-01-25T17:41:28.387Z,99515.34
2023-01-25T17:43:54.931Z,99505.06
2023-01-25T17:46:48.445Z,99504.69
2023-01-25T17:49:16.995Z,99503.53
2023-01-25T17:51:44.058Z,99499.59
2023-01-25T17:54:12.730Z,99492.38
2023-01-25T17:56:40.282Z,99495.78
2023-01-25T17:59:09.150Z,99495.38
2023-01-25T18:01:36.284Z,99490.81
2023-01-25T18:04:07.057Z,99486.47
2023-01-25T18:06:33.837Z,99481.78
2023-01-25T18:09:02.415Z,99478.56
2023-01-25T18:11:32.124Z,99482.38
2023-01-25T18:14:02.108Z,99484.63
2023-01-25T18:16:30.943Z,99482.31
2023-01-25T18:18:59.582Z,99497.53
2023-01-25T18:21:28.792Z,99494.66
2023-01-25T18:23:58.936Z,99496.03
2023-01-25T18:26:31.894Z,99492.31
2023-01-25T18:29:02.854Z,99487.75
2023-01-25T18:31:29.710Z,99485.09
2023-01-25T18:33:58.205Z,99467.50
2023-01-25T18:36:25.272Z,99482.31
2023-01-25T18:38:52.430Z,99482.78
2023-01-25T18:41:19.199Z,99483.50
2023-01-25T18:43:49.087Z,99471.81
2023-01-25T18:46:15.895Z,99485.94
2023-01-25T18:48:45.537Z,99484.16
2023-01-25T18:51:15.547Z,99489.47
2023-01-25T18:53:44.592Z,99493.75
2023-01-25T18:56:22.109Z,99481.19
2023-01-25T18:58:50.427Z,99484.69
2023-01-25T19:01:20.044Z,99478.44
2023-01-25T19:03:48.114Z,99481.81
2023-01-25T19:06:15.479Z,99487.19
2023-01-25T19:08:44.262Z,99480.25
2023-01-25T19:11:14.213Z,99478.16
2023-01-25T19:13:42.642Z,99476.53
2023-01-25T19:16:15.356Z,99482.72
2023-01-25T19:18:46.942Z,99482.28
2023-01-25T19:21:15.983Z,99480.25
2023-01-25T19:23:43.264Z,99488.38
2023-01-25T19:26:15.956Z,99480.81
2023-01-25T19:28:43.902Z,99475.34
2023-01-25T19:31:13.973Z,99467.69
2023-01-25T19:33:41.460Z,99477.94
2023-01-25T19:36:13.106Z,99464.06
2023-01-25T19:38:40.397Z,99472.69
2023-01-25T19:41:12.939Z,99481.13
2023-01-25T19:43:43.669Z,99475.59
2023-01-25T19:46:11.404Z,99468.88
2023-01-25T19:48:38.689Z,99474.66
2023-01-25T19:51:12.787Z,99476.75
2023-01-25T19:53:40.891Z,99470.25
2023-01-25T19:56:09.427Z,99461.31
2023-01-25T19:58:36.018Z,99462.28
2023-01-25T20:01:10.147Z,99459.28
2023-01-25T20:03:37.109Z,99448.97
2023-01-25T20:06:07.095Z,99429.44
2023-01-25T20:08:35.919Z,99429.00
2023-01-25T20:11:08.008Z,99417.94
2023-01-25T20:13:34.760Z,99418.56
2023-01-25T20:16:01.406Z,99412.41
2023-01-25T20:18:30.123Z,99408.88
2023-01-25T20:20:58.935Z,99399.84
2023-01-25T20:23:26.653Z,99403.22
2023-01-25T20:26:00.127Z,99398.34
2023-01-25T20:28:27.838Z,99399.06
2023-01-25T20:30:54.631Z,99399.19
2023-01-25T20:33:21.767Z,99392.25
2023-01-25T20:35:50.131Z,99373.19
2023-01-25T20:38:16.905Z,99389.41
2023-01-25T20:40:43.508Z,99391.53
2023-01-25T20:43:10.074Z,99393.25
2023-01-25T20:45:38.290Z,99384.72
2023-01-25T20:48:05.260Z,99381.50
2023-01-25T20:50:31.881Z,99374.06
2023-01-25T20:52:58.442Z,99380.03
2023-01-25T20:55:25.082Z,99379.38
2023-01-25T20:57:54.294Z,99373.63
2023-01-25T21:00:21.426Z,99382.59
2023-01-25T21:02:48.020Z,99385.34
2023-01-25T21:05:14.632Z,99388.78
2023-01-25T21:07:41.342Z,99386.53
2023-01-25T21:10:08.549Z,99378.84
2023-01-25T21:12:35.211Z,99372.13
2023-01-25T21:15:01.873Z,99388.63
2023-01-25T21:17:28.627Z,99391.94
2023-01-25T21:19:55.617Z,99394.06
2023-01-25T21:22:22.258Z,99387.69
2023-01-25T21:24:48.877Z,99390.56
2023-01-25T21:27:15.633Z,99395.38
2023-01-25T21:29:42.190Z,99388.44
2023-01-25T21:32:08.824Z,99385.53
2023-01-25T21:34:35.442Z,99388.75
2023-01-25T21:37:02.019Z,99387.97
2023-01-25T21:39:28.780Z,99387.66
2023-01-25T21:41:55.393Z,99384.25
2023-01-25T21:44:40.614Z,99374.44
2023-01-25T21:50:12.504Z,99370.19
2023-01-25T21:52:39.179Z,99370.50
2023-01-25T21:55:06.306Z,99352.66
2023-01-25T21:57:32.879Z,99359.16
2023-01-25T21:59:59.414Z,99349.53
2023-01-25T22:02:25.983Z,99352.97
2023-01-25T22:04:52.637Z,99349.88
2023-01-25T22:07:19.391Z,99346.69
2023-01-25T22:09:46.044Z,99334.88
2023-01-25T22:12:12.887Z,99336.69
2023-01-25T22:14:39.478Z,99332.09
2023-01-25T22:17:06.117Z,99324.00
2023-01-25T22:19:33.398Z,99323.88
2023-01-25T22:22:00.006Z,99320.25
2023-01-25T22:24:26.648Z,99290.66
2023-01-25T22:27:24.301Z,99298.44
2023-01-25T22:29:50.902Z,99294.63
2023-01-25T22:32:17.814Z,99288.31
2023-01-25T22:34:44.386Z,99286.75
2023-01-25T22:37:12.229Z,99286.09
2023-01-25T22:39:38.833Z,99284.31
2023-01-25T22:42:05.422Z,99278.34
2023-01-25T22:44:31.955Z,99269.06
2023-01-25T22:46:58.531Z,99264.59
2023-01-25T22:49:25.480Z,99264.28
2023-01-25T22:51:52.036Z,99250.03
2023-01-25T22:54:18.688Z,99263.31
2023-01-25T22:56:45.235Z,99251.72
2023-01-25T22:59:14.848Z,99244.78
2023-01-25T23:01:41.448Z,99243.63
2023-01-25T23:04:08.124Z,99240.97
2023-01-25T23:06:34.728Z,99238.63
2023-01-25T23:09:05.169Z,99231.78
2023-01-25T23:11:37.877Z,99225.00
2023-01-25T23:14:25.655Z,99229.59
2023-01-25T23:16:52.549Z,99235.53
2023-01-25T23:19:19.387Z,99236.25
2023-01-25T23:21:46.029Z,99240.22
2023-01-25T23:24:12.760Z,99236.91
2023-01-25T23:26:40.916Z,99227.84
2023-01-25T23:29:10.975Z,99234.03
2023-01-25T23:31:37.975Z,99221.91
2023-01-25T23:34:06.822Z,99229.44
2023-01-25T23:36:36.037Z,99235.31
2023-01-25T23:39:03.362Z,99222.00
2023-01-25T23:41:30.405Z,99215.41
2023-01-25T23:43:58.050Z,99217.94
2023-01-25T23:46:25.941Z,99217.94
2023-01-25T23:48:52.667Z,99224.00
2023-01-25T23:51:20.248Z,99218.56
2023-01-25T23:53:47.362Z,99212.19
2023-01-25T23:56:20.112Z,99214.28
2023-01-25T23:58:47.791Z,99203.13
